Time;durP1;ratioP1;P1;durP2;ratioP2;P2;SDS_P1;SDS_P2;PMS_P1;PMS_P2;Temp;Humidity;BMP_temperature;BMP_pressure;BME280_temperature;BME280_humidity;BME280_pressure;Samples;Min_cycle;Max_cycle;Signal;HPM_P1;HPM_P2
2021/08/30 00:02:24;;;;;;;;;0.00;0.00;;;;;16.37;66.64;101667.97;5080118;27;45321;-77
2021/08/30 00:04:50;;;;;;;;;0.00;0.00;;;;;16.11;67.43;101628.56;5081421;27;45325;-77
2021/08/30 00:07:15;;;;;;;;;0.00;0.00;;;;;16.21;67.43;101657.44;5080118;27;45411;-77
2021/08/30 00:09:41;;;;;;;;;0.00;0.00;;;;;16.44;67.12;101679.34;5081132;27;46632;-77
2021/08/30 00:12:07;;;;;;;;;0.00;0.00;;;;;16.44;67.05;101674.06;5096827;27;45312;-77
2021/08/30 00:14:33;;;;;;;;;0.00;0.00;;;;;16.47;66.76;101676.72;5081301;28;45291;-77
2021/08/30 00:16:59;;;;;;;;;0.00;0.00;;;;;16.50;67.28;101684.59;5079895;28;45541;-77
2021/08/30 00:19:25;;;;;;;;;0.00;0.00;;;;;16.43;67.29;101672.34;5079606;28;48187;-78
2021/08/30 00:21:51;;;;;;;;;0.00;0.00;;;;;16.26;67.86;101653.97;5081195;27;45293;-77
2021/08/30 00:24:22;;;;;;;;;0.00;0.00;;;;;16.29;68.08;101660.09;5111906;27;45339;-77
2021/08/30 00:26:48;;;;;;;;;0.00;0.00;;;;;16.20;68.17;101662.69;5100057;27;45282;-77
2021/08/30 00:29:13;;;;;;;;;0.00;0.00;;;;;16.19;67.99;101659.22;5099919;27;47241;-78
2021/08/30 00:31:39;;;;;;;;;0.00;0.00;;;;;16.34;67.87;101683.72;5101447;27;45480;-77
2021/08/30 00:34:04;;;;;;;;;0.00;0.00;;;;;16.15;68.29;101651.34;5099990;27;45534;-77
2021/08/30 00:36:30;;;;;;;;;0.00;0.00;;;;;16.16;68.61;101655.69;5101182;27;45538;-78
2021/08/30 00:38:55;;;;;;;;;0.00;0.00;;;;;16.07;68.33;101646.06;5101336;27;46208;-78
2021/08/30 00:41:22;;;;;;;;;0.50;0.00;;;;;15.96;68.23;101618.06;5094498;27;45227;-78
2021/08/30 00:43:47;;;;;;;;;0.00;0.00;;;;;15.97;68.10;101608.44;5080885;28;45311;-78
2021/08/30 00:46:17;;;;;;;;;0.00;0.00;;;;;16.26;68.68;101659.22;5080490;27;45226;-77
2021/08/30 00:48:46;;;;;;;;;0.00;0.00;;;;;16.00;68.57;101625.94;5080508;27;45338;-77
2021/08/30 00:51:12;;;;;;;;;2.00;0.00;;;;;16.11;68.93;101639.94;5080352;27;45377;-78
2021/08/30 00:53:37;;;;;;;;;0.00;0.00;;;;;16.21;69.10;101649.56;5096375;27;45255;-77
2021/08/30 00:56:03;;;;;;;;;0.00;0.00;;;;;16.29;68.43;101651.34;5079413;28;45547;-78
2021/08/30 00:58:28;;;;;;;;;0.75;0.00;;;;;16.40;68.69;101669.72;5080514;27;47637;-78
2021/08/30 01:00:53;;;;;;;;;0.00;0.00;;;;;16.18;68.90;101633.84;5078896;28;45434;-77
2021/08/30 01:03:19;;;;;;;;;2.75;0.75;;;;;16.40;68.81;101667.06;5080454;27;45480;-77
2021/08/30 01:05:53;;;;;;;;;0.00;0.00;;;;;16.20;69.47;101636.44;5080409;28;45306;-78
2021/08/30 01:08:30;;;;;;;;;0.00;0.00;;;;;16.28;69.47;101649.56;5079039;28;48457;-77
2021/08/30 01:11:17;;;;;;;;;0.00;0.00;;;;;16.17;69.67;101634.69;5080455;28;45446;-77
2021/08/30 01:14:00;;;;;;;;;0.00;0.00;;;;;16.18;70.14;101627.69;5096103;27;45319;-78
2021/08/30 01:16:27;;;;;;;;;0.25;0.00;;;;;16.14;70.04;101625.94;5079722;27;45340;-78
2021/08/30 01:18:54;;;;;;;;;0.00;0.00;;;;;16.01;69.96;101609.31;5095273;27;45395;-78
2021/08/30 01:21:24;;;;;;;;;0.00;0.00;;;;;16.17;70.04;101626.81;5079566;27;45293;-78
2021/08/30 01:23:55;;;;;;;;;0.00;0.00;;;;;16.24;70.57;101642.56;5091208;27;45284;-78
2021/08/30 01:26:21;;;;;;;;;0.00;0.00;;;;;16.28;70.24;101649.56;5099255;27;45247;-78
2021/08/30 01:29:00;;;;;;;;;0.00;0.00;;;;;16.05;70.95;101616.31;5098947;27;47416;-78
2021/08/30 01:31:43;;;;;;;;;0.00;0.00;;;;;16.23;70.91;101649.56;5100693;27;45264;-78
2021/08/30 01:34:09;;;;;;;;;0.00;0.00;;;;;16.15;71.45;101644.34;5099077;27;45433;-78
2021/08/30 01:36:35;;;;;;;;;0.00;0.00;;;;;15.87;71.40;101589.16;5100341;27;45426;-78
2021/08/30 01:39:02;;;;;;;;;0.00;0.00;;;;;16.13;71.70;101645.19;5099194;27;45560;-78
2021/08/30 01:41:28;;;;;;;;;0.00;0.00;;;;;16.06;71.78;101641.72;5099182;27;45291;-77
2021/08/30 01:43:56;;;;;;;;;0.00;0.00;;;;;16.02;71.85;101622.44;5100455;27;45339;-78
2021/08/30 01:46:23;;;;;;;;;0.25;0.25;;;;;16.11;71.73;101636.47;5100419;27;45271;-78
2021/08/30 01:48:51;;;;;;;;;0.00;0.00;;;;;16.19;71.69;101645.19;5099018;27;48253;-78
2021/08/30 01:51:20;;;;;;;;;0.00;0.00;;;;;15.89;72.30;101600.53;5098806;27;45622;-77
2021/08/30 01:53:47;;;;;;;;;0.00;0.00;;;;;16.00;72.22;101616.31;5098942;27;45251;-78
2021/08/30 01:56:15;;;;;;;;;0.00;0.00;;;;;15.95;72.53;101613.66;5100409;27;45292;-78
2021/08/30 02:01:26;;;;;;;;;0.00;0.00;;;;;15.96;72.91;101609.31;5099920;27;45276;-77
2021/08/30 02:03:52;;;;;;;;;1.00;1.00;;;;;15.99;73.13;101618.94;5116218;27;45391;-77
2021/08/30 02:06:17;;;;;;;;;0.00;0.00;;;;;16.14;73.04;101634.69;5100259;27;45301;-77
2021/08/30 02:08:43;;;;;;;;;0.50;0.00;;;;;16.08;73.28;101613.72;5098712;27;47277;-77
2021/08/30 02:11:11;;;;;;;;;0.00;0.00;;;;;15.99;72.82;101606.72;5098668;27;45693;-77
2021/08/30 02:13:36;;;;;;;;;1.00;0.00;;;;;15.95;73.07;101587.41;5100240;27;45326;-77
2021/08/30 02:16:03;;;;;;;;;0.25;0.00;;;;;16.06;73.30;101615.44;5098513;27;45413;-77
2021/08/30 02:18:39;;;;;;;;;0.00;0.00;;;;;16.16;73.69;101643.47;5099886;27;47715;-77
2021/08/30 02:21:35;;;;;;;;;0.00;0.00;;;;;16.21;73.36;101641.69;5098439;27;45740;-77
2021/08/30 02:24:19;;;;;;;;;0.00;0.00;;;;;16.21;73.03;101639.06;5085609;27;45414;-77
2021/08/30 02:27:02;;;;;;;;;0.00;0.00;;;;;15.89;73.53;101595.28;5078011;28;45757;-77
2021/08/30 02:29:47;;;;;;;;;0.00;0.00;;;;;16.06;74.03;101620.69;5079026;28;48172;-77
2021/08/30 02:32:15;;;;;;;;;0.00;0.00;;;;;15.97;73.68;101595.31;5064867;28;45221;-77
2021/08/30 02:35:01;;;;;;;;;1.25;1.00;;;;;16.01;73.44;101609.31;5081320;28;45417;-77
2021/08/30 02:37:30;;;;;;;;;1.00;1.00;;;;;16.08;73.43;101621.59;5082545;27;45321;-77
2021/08/30 02:39:58;;;;;;;;;0.00;0.00;;;;;16.04;74.03;101622.44;5082773;27;46667;-76
2021/08/30 02:42:24;;;;;;;;;0.00;0.00;;;;;15.94;73.96;101603.16;5082894;27;45318;-77
2021/08/30 02:44:49;;;;;;;;;1.00;0.00;;;;;16.06;73.61;101613.69;5081281;28;45394;-77
2021/08/30 02:47:18;;;;;;;;;2.00;0.00;;;;;16.16;73.93;101632.94;5098412;27;45403;-76
2021/08/30 02:49:45;;;;;;;;;0.00;0.00;;;;;16.18;74.07;101628.59;5082526;28;45420;-76
2021/08/30 02:52:13;;;;;;;;;1.00;0.00;;;;;16.17;74.45;101634.69;5080857;28;45252;-77
2021/08/30 02:54:42;;;;;;;;;0.00;0.00;;;;;16.12;74.11;101615.44;5082354;27;45329;-76
2021/08/30 02:57:08;;;;;;;;;1.00;0.50;;;;;16.30;74.10;101637.31;5081393;28;45805;-76
2021/08/30 02:59:34;;;;;;;;;0.00;0.00;;;;;16.12;73.73;101607.56;5080774;28;47229;-76
2021/08/30 03:02:00;;;;;;;;;0.00;0.00;;;;;16.40;74.10;101638.19;5082298;28;45338;-77
2021/08/30 03:04:27;;;;;;;;;0.25;0.00;;;;;16.24;73.68;101595.28;5080916;28;45307;-77
2021/08/30 03:06:53;;;;;;;;;0.00;0.00;;;;;16.27;73.20;101596.19;5082083;28;45441;-77
2021/08/30 03:09:18;;;;;;;;;1.00;0.25;;;;;16.51;73.84;101630.28;5080822;28;48110;-77
2021/08/30 03:11:47;;;;;;;;;0.00;0.00;;;;;16.48;73.77;101601.38;5082457;27;45330;-77
2021/08/30 03:14:17;;;;;;;;;0.00;0.00;;;;;16.70;73.27;101629.34;5082505;27;45189;-76
2021/08/30 03:16:43;;;;;;;;;0.00;0.00;;;;;16.46;72.89;101577.72;5082131;27;45619;-77
2021/08/30 03:19:12;;;;;;;;;0.00;0.00;;;;;16.56;73.11;101589.97;5081994;28;45320;-78
2021/08/30 03:21:38;;;;;;;;;0.00;0.00;;;;;16.81;72.96;101623.19;5097461;27;45506;-78
2021/08/30 03:24:06;;;;;;;;;0.75;0.00;;;;;16.51;73.31;101580.34;5095443;27;45386;-78
2021/08/30 03:26:32;;;;;;;;;0.00;0.00;;;;;16.34;73.44;101555.88;5098341;27;45620;-78
2021/08/30 03:28:59;;;;;;;;;0.00;0.00;;;;;16.70;73.34;101625.88;5096871;27;48144;-78
2021/08/30 03:31:27;;;;;;;;;0.00;0.00;;;;;16.75;73.58;101610.94;5080791;28;45358;-78
2021/08/30 03:33:54;;;;;;;;;0.00;0.00;;;;;16.86;73.23;101626.69;5081262;27;45358;-78
2021/08/30 03:36:20;;;;;;;;;0.50;0.00;;;;;16.69;73.15;101595.19;5081266;28;45179;-78
2021/08/30 03:38:46;;;;;;;;;0.00;0.00;;;;;16.58;73.34;101580.34;5079965;28;46359;-78
2021/08/30 03:41:14;;;;;;;;;0.00;0.00;;;;;16.53;72.83;101581.19;5080615;27;45265;-78
2021/08/30 03:43:42;;;;;;;;;0.00;0.00;;;;;16.27;73.08;101538.38;5081697;27;45341;-77
2021/08/30 03:46:08;;;;;;;;;0.00;0.00;;;;;16.71;73.64;101619.72;5081413;28;45579;-78
2021/08/30 03:48:35;;;;;;;;;1.00;0.00;;;;;16.69;73.60;101605.72;5081323;27;45542;-78
2021/08/30 03:51:01;;;;;;;;;1.00;1.00;;;;;16.66;73.25;101606.56;5081195;27;45225;-78
2021/08/30 03:53:29;;;;;;;;;0.25;0.00;;;;;16.77;72.85;101611.81;5081778;27;45290;-78
2021/08/30 03:55:56;;;;;;;;;0.00;0.00;;;;;16.58;73.39;101592.59;5081406;27;45440;-78
2021/08/30 03:58:22;;;;;;;;;1.00;0.00;;;;;16.66;73.71;101609.22;5097246;27;47356;-78
2021/08/30 04:00:48;;;;;;;;;0.50;0.50;;;;;16.69;73.85;101629.38;5096835;27;45330;-78
2021/08/30 04:03:16;;;;;;;;;1.00;0.00;;;;;16.60;73.92;101609.22;5081456;27;45191;-77
2021/08/30 04:05:42;;;;;;;;;0.00;0.00;;;;;16.54;73.56;101596.97;5079694;28;46055;-79
2021/08/30 04:08:09;;;;;;;;;3.00;0.00;;;;;16.72;73.54;101619.72;5079397;27;47986;-78
2021/08/30 04:10:36;;;;;;;;;0.00;0.00;;;;;16.78;73.67;101615.34;5081003;27;45354;-77
2021/08/30 04:13:03;;;;;;;;;0.00;0.00;;;;;16.80;73.30;101610.91;5080496;27;45381;-78
2021/08/30 04:15:30;;;;;;;;;0.25;0.25;;;;;16.53;73.67;101570.69;5080668;27;45224;-77
2021/08/30 04:17:56;;;;;;;;;0.00;0.00;;;;;16.69;73.86;101606.56;5080812;27;45450;-77
2021/08/30 04:20:21;;;;;;;;;1.00;1.00;;;;;16.65;74.01;101603.94;5080540;27;45243;-77
2021/08/30 04:22:46;;;;;;;;;0.00;0.00;;;;;16.39;73.38;101547.09;5096395;27;45331;-77
2021/08/30 04:25:12;;;;;;;;;0.50;0.00;;;;;16.77;73.89;101617.06;5081046;27;45468;-77
2021/08/30 04:27:38;;;;;;;;;0.00;0.00;;;;;16.72;73.63;101603.94;5080023;27;46424;-77
2021/08/30 04:30:04;;;;;;;;;0.00;0.00;;;;;16.32;73.38;101539.22;5080748;27;45370;-77
2021/08/30 04:32:33;;;;;;;;;0.00;0.00;;;;;16.48;73.85;101567.22;5080419;27;45476;-77
2021/08/30 04:34:59;;;;;;;;;0.00;0.00;;;;;16.80;73.61;101619.69;5080514;27;45253;-77
2021/08/30 04:37:25;;;;;;;;;0.00;0.00;;;;;16.54;73.75;101577.72;5079367;27;46673;-77
2021/08/30 04:39:53;;;;;;;;;0.00;0.00;;;;;16.63;74.08;101601.31;5079849;27;45224;-77
2021/08/30 04:42:18;;;;;;;;;0.00;0.00;;;;;16.77;73.66;101617.06;5080357;27;45458;-77
2021/08/30 04:44:44;;;;;;;;;0.00;0.00;;;;;16.49;73.89;101571.59;5080047;28;45370;-77
2021/08/30 04:47:09;;;;;;;;;1.00;1.00;;;;;16.62;74.32;101604.84;5080030;27;46489;-77
2021/08/30 04:49:35;;;;;;;;;1.75;0.00;;;;;16.68;74.53;101603.94;5080283;27;45348;-77
2021/08/30 04:52:00;;;;;;;;;0.00;0.00;;;;;16.74;74.58;101618.81;5079981;27;45318;-77
2021/08/30 04:54:26;;;;;;;;;0.25;0.25;;;;;16.67;74.30;101612.72;5078980;28;45406;-77
2021/08/30 04:56:51;;;;;;;;;0.50;0.00;;;;;16.47;74.58;101582.09;5080387;27;45363;-77
2021/08/30 04:59:16;;;;;;;;;0.00;0.00;;;;;16.76;74.44;101622.34;5080410;27;45236;-77
2021/08/30 05:01:42;;;;;;;;;0.00;0.00;;;;;16.48;74.74;101586.50;5095545;27;45646;-76
2021/08/30 05:04:07;;;;;;;;;0.00;0.00;;;;;16.81;74.49;101631.94;5080254;28;45416;-76
2021/08/30 05:06:33;;;;;;;;;1.00;1.00;;;;;16.54;74.15;101585.59;5078243;28;46102;-78
2021/08/30 05:08:58;;;;;;;;;1.00;1.00;;;;;16.75;74.49;101617.97;5080239;27;45248;-78
2021/08/30 05:11:24;;;;;;;;;2.75;1.50;;;;;16.48;73.97;101581.25;5079943;27;45553;-77
2021/08/30 05:13:49;;;;;;;;;0.00;0.00;;;;;16.84;74.10;101641.56;5079822;27;45330;-77
2021/08/30 05:16:15;;;;;;;;;0.75;0.75;;;;;16.85;74.26;101643.34;5079960;27;45287;-75
2021/08/30 05:18:40;;;;;;;;;1.50;0.00;;;;;16.63;74.35;101603.94;5095459;27;45300;-76
2021/08/30 05:21:09;;;;;;;;;1.00;0.75;;;;;16.72;74.17;101624.97;5079641;27;45279;-79
2021/08/30 05:23:35;;;;;;;;;1.00;1.00;;;;;16.75;74.69;101613.56;5089007;27;45336;-75
2021/08/30 05:26:01;;;;;;;;;0.50;0.00;;;;;16.98;74.30;101641.53;5099909;27;45460;-76
2021/08/30 05:28:26;;;;;;;;;1.00;1.00;;;;;16.96;74.20;101631.03;5098107;27;45308;-76
2021/08/30 05:30:52;;;;;;;;;0.50;0.50;;;;;16.96;74.07;101619.63;5092619;27;45358;-76
2021/08/30 05:33:18;;;;;;;;;3.00;1.50;;;;;16.59;73.79;101566.31;5078961;27;45518;-76
2021/08/30 05:35:43;;;;;;;;;1.00;0.00;;;;;17.06;73.92;101634.53;5077527;28;48339;-77
2021/08/30 05:38:09;;;;;;;;;0.00;0.00;;;;;17.06;73.84;101637.16;5079736;28;45338;-76
2021/08/30 05:40:35;;;;;;;;;1.00;1.00;;;;;17.17;73.97;101657.28;5079314;28;45185;-76
2021/08/30 05:43:00;;;;;;;;;1.00;1.00;;;;;17.18;73.74;101648.53;5077981;28;45859;-76
2021/08/30 05:45:26;;;;;;;;;0.00;0.00;;;;;17.21;73.48;101654.63;5079498;27;46603;-76
2021/08/30 05:47:52;;;;;;;;;0.00;0.00;;;;;17.23;73.36;101652.00;5079134;27;45160;-76
2021/08/30 05:50:17;;;;;;;;;0.00;0.00;;;;;16.95;73.45;101605.63;5079241;28;45279;-76
2021/08/30 05:52:42;;;;;;;;;1.00;1.00;;;;;16.79;73.38;101569.75;5093655;27;45414;-77
2021/08/30 05:55:08;;;;;;;;;0.25;0.25;;;;;17.00;73.11;101608.19;5079442;27;46196;-77
2021/08/30 05:57:34;;;;;;;;;4.75;3.50;;;;;17.00;73.14;101623.13;5079267;27;45343;-77
2021/08/30 05:59:59;;;;;;;;;2.00;0.50;;;;;17.13;73.49;101647.66;5079330;27;45243;-77
2021/08/30 06:02:24;;;;;;;;;2.00;0.75;;;;;16.93;73.11;101599.47;5078558;27;45282;-76
2021/08/30 06:04:50;;;;;;;;;0.75;0.75;;;;;16.98;73.60;101609.97;5113493;27;46946;-78
2021/08/30 06:07:15;;;;;;;;;1.00;1.00;;;;;17.07;73.87;101630.16;5082375;27;45330;-77
2021/08/30 06:09:40;;;;;;;;;0.25;0.25;;;;;17.04;73.29;101609.97;5082930;27;45422;-77
2021/08/30 06:12:06;;;;;;;;;0.75;0.75;;;;;17.13;73.58;101635.38;5082214;27;45361;-77
2021/08/30 06:14:31;;;;;;;;;1.00;1.00;;;;;17.06;73.67;101616.09;5114865;27;46927;-77
2021/08/30 06:16:57;;;;;;;;;0.75;0.75;;;;;17.03;72.98;101612.59;5083070;27;45358;-77
2021/08/30 06:19:22;;;;;;;;;1.00;1.00;;;;;17.19;73.11;101645.88;5082776;27;45380;-77
2021/08/30 06:21:47;;;;;;;;;1.25;1.00;;;;;17.19;73.75;101643.25;5082649;27;45405;-77
2021/08/30 06:24:13;;;;;;;;;0.50;0.50;;;;;17.07;73.09;101615.25;5085943;27;45464;-78
2021/08/30 06:26:38;;;;;;;;;2.00;1.75;;;;;17.12;73.22;101627.50;5115138;27;45225;-77
2021/08/30 06:29:05;;;;;;;;;1.00;1.00;;;;;17.46;73.13;101669.44;5082084;27;45172;-78
2021/08/30 06:31:30;;;;;;;;;1.00;0.00;;;;;16.98;72.85;101594.19;5082328;27;45245;-77
2021/08/30 06:33:56;;;;;;;;;1.25;1.25;;;;;17.32;72.84;101648.44;5081492;27;45579;-77
2021/08/30 06:36:22;;;;;;;;;0.50;0.50;;;;;17.51;72.35;101672.91;5081932;27;45498;-77
2021/08/30 06:38:48;;;;;;;;;0.50;0.50;;;;;17.42;72.42;101665.94;5082256;27;45233;-77
2021/08/30 06:41:13;;;;;;;;;1.00;1.00;;;;;17.12;72.73;101611.72;5080945;28;45485;-77
2021/08/30 06:43:39;;;;;;;;;2.50;1.00;;;;;17.44;72.54;101666.81;5080665;28;47047;-76
2021/08/30 06:46:04;;;;;;;;;1.00;1.00;;;;;17.56;72.59;101678.16;5113864;27;45748;-76
2021/08/30 06:48:30;;;;;;;;;1.50;1.50;;;;;17.43;72.48;101641.34;5113654;27;45559;-77
2021/08/30 06:50:55;;;;;;;;;0.00;0.00;;;;;17.68;72.08;101671.94;5081033;27;45384;-77
2021/08/30 06:53:20;;;;;;;;;1.50;1.00;;;;;17.46;71.81;101628.19;5081216;27;45905;-77
2021/08/30 06:55:46;;;;;;;;;0.00;0.00;;;;;17.55;71.52;101640.41;5081210;27;45375;-77
2021/08/30 06:58:11;;;;;;;;;1.50;0.50;;;;;17.73;71.24;101659.59;5114495;27;45451;-76
2021/08/30 07:00:37;;;;;;;;;1.75;0.00;;;;;17.85;71.35;101684.97;5114117;27;45411;-76
2021/08/30 07:03:02;;;;;;;;;1.50;0.00;;;;;17.55;71.06;101629.03;5081937;28;45404;-76
2021/08/30 07:05:27;;;;;;;;;1.00;1.00;;;;;17.88;71.68;101682.31;5081634;27;45369;-76
2021/08/30 07:07:53;;;;;;;;;0.25;0.25;;;;;17.85;70.64;101672.69;5108318;27;45410;-76
2021/08/30 07:10:18;;;;;;;;;0.00;0.00;;;;;17.93;70.92;101685.81;5089948;27;45299;-76
2021/08/30 07:12:43;;;;;;;;;1.00;1.00;;;;;17.81;70.63;101668.34;5084586;27;47565;-77
2021/08/30 07:15:09;;;;;;;;;0.00;0.00;;;;;17.82;70.90;101666.56;5095726;27;45350;-77
2021/08/30 07:17:35;;;;;;;;;7.00;1.50;;;;;17.78;70.57;101649.03;5079548;28;45261;-76
2021/08/30 07:20:01;;;;;;;;;0.50;0.50;;;;;17.94;70.69;101686.66;5069937;28;45441;-76
2021/08/30 07:22:26;;;;;;;;;1.00;0.00;;;;;17.82;70.58;101685.88;5061159;28;45541;-76
2021/08/30 07:24:51;;;;;;;;;0.75;0.00;;;;;17.66;70.61;101668.41;5070887;27;45983;-77
2021/08/30 07:27:17;;;;;;;;;0.50;0.50;;;;;17.75;70.48;101684.16;5074208;27;45805;-77
2021/08/30 07:29:42;;;;;;;;;2.50;0.50;;;;;17.83;70.18;101676.22;5087088;27;45363;-77
2021/08/30 07:32:08;;;;;;;;;0.00;0.00;;;;;17.81;70.29;101662.19;5098507;27;47541;-77
2021/08/30 07:34:34;;;;;;;;;0.00;0.00;;;;;17.89;70.07;101684.09;5098420;27;45431;-77
2021/08/30 07:36:59;;;;;;;;;0.75;0.75;;;;;18.05;70.02;101690.13;5099834;27;45471;-74
2021/08/30 07:39:25;;;;;;;;;1.25;1.25;;;;;17.88;69.83;101658.63;5080727;27;45393;-78
2021/08/30 07:41:50;;;;;;;;;1.00;1.00;;;;;18.09;69.58;101696.22;5080808;27;46559;-76
2021/08/30 07:44:16;;;;;;;;;2.00;2.00;;;;;18.13;69.68;101694.50;5078489;28;45516;-76
2021/08/30 07:46:41;;;;;;;;;2.50;1.00;;;;;18.16;69.24;101692.69;5079609;27;45428;-77
2021/08/30 07:49:07;;;;;;;;;0.25;0.25;;;;;18.26;69.04;101696.16;5080422;27;45407;-77
2021/08/30 07:51:34;;;;;;;;;2.50;1.25;;;;;18.46;69.00;101705.63;5080885;27;46333;-78
2021/08/30 07:54:00;;;;;;;;;0.00;0.00;;;;;18.49;68.45;101703.84;5080005;27;45302;-77
2021/08/30 07:56:25;;;;;;;;;1.00;1.00;;;;;18.57;68.03;101711.69;5080195;27;45270;-77
2021/08/30 07:58:50;;;;;;;;;0.00;0.00;;;;;18.74;67.61;101721.19;5080090;28;45232;-78
2021/08/30 08:01:16;;;;;;;;;1.00;1.00;;;;;18.48;67.52;101665.19;5081011;27;45401;-77
2021/08/30 08:03:41;;;;;;;;;1.00;1.00;;;;;18.52;67.21;101680.97;5079365;27;45488;-77
2021/08/30 08:06:06;;;;;;;;;1.00;1.00;;;;;18.55;67.29;101695.00;5079419;27;45322;-78
2021/08/30 08:08:32;;;;;;;;;0.00;0.00;;;;;18.72;67.23;101721.19;5111324;27;45485;-77
2021/08/30 08:10:57;;;;;;;;;2.00;2.00;;;;;18.54;66.72;101695.00;5078452;27;45408;-81
2021/08/30 08:13:23;;;;;;;;;1.50;0.00;;;;;18.69;66.69;101715.97;5070366;27;45892;-76
2021/08/30 08:15:49;;;;;;;;;1.25;1.25;;;;;18.82;66.69;101731.66;5075526;27;45438;-76
2021/08/30 08:18:16;;;;;;;;;1.00;1.00;;;;;18.88;66.41;101726.31;5076790;27;45750;-79
2021/08/30 08:20:41;;;;;;;;;3.00;0.75;;;;;18.88;66.15;101728.97;5080552;27;45558;-76
2021/08/30 08:23:07;;;;;;;;;0.00;0.00;;;;;18.63;65.91;101681.75;5114649;27;45778;-80
2021/08/30 08:25:32;;;;;;;;;2.00;2.00;;;;;18.79;65.86;101713.22;5079519;27;45342;-81
2021/08/30 08:28:03;;;;;;;;;0.00;0.00;;;;;18.96;65.24;101739.44;5112626;27;45648;-77
2021/08/30 08:30:28;;;;;;;;;0.25;0.25;;;;;18.79;65.71;101707.94;5081309;27;46124;-76
2021/08/30 08:32:54;;;;;;;;;0.00;0.00;;;;;18.82;65.72;101703.53;5079737;28;45522;-76
2021/08/30 08:35:19;;;;;;;;;0.00;0.00;;;;;18.91;65.30;101699.91;5111012;27;45492;-80
2021/08/30 08:37:44;;;;;;;;;1.00;1.00;;;;;19.19;65.13;101740.97;5072485;27;45465;-78
2021/08/30 08:40:12;;;;;;;;;1.00;1.00;;;;;19.15;65.05;101720.78;5078532;28;45482;-78
2021/08/30 08:42:39;;;;;;;;;0.00;0.00;;;;;19.24;64.49;101740.00;5079484;27;45280;-77
2021/08/30 08:45:06;;;;;;;;;0.00;0.00;;;;;19.07;64.66;101699.72;5076908;28;45384;-79
2021/08/30 08:47:35;;;;;;;;;0.00;0.00;;;;;19.20;64.54;101703.16;5079057;27;46338;-79
2021/08/30 08:50:00;;;;;;;;;0.00;0.00;;;;;19.10;63.82;101678.59;5075115;27;47410;-78
2021/08/30 08:52:26;;;;;;;;;0.25;0.25;;;;;19.48;63.96;101745.88;5077704;27;45477;-76
2021/08/30 08:54:51;;;;;;;;;0.00;0.00;;;;;19.30;63.69;101711.81;5078112;27;45424;-78
2021/08/30 08:57:17;;;;;;;;;0.00;0.00;;;;;19.53;63.83;101735.28;5078653;28;45466;-82
2021/08/30 09:00:01;;;;;;;;;0.25;0.25;;;;;19.54;62.78;101720.31;5077943;27;45419;-76
2021/08/30 09:02:28;;;;;;;;;0.50;0.00;;;;;19.77;62.53;101732.31;5078701;27;45478;-76
2021/08/30 09:04:54;;;;;;;;;1.25;1.25;;;;;19.71;61.94;101720.06;5075580;27;45552;-76
2021/08/30 09:07:28;;;;;;;;;0.75;0.75;;;;;19.92;61.88;101749.72;5077534;27;45196;-79
2021/08/30 09:09:57;;;;;;;;;1.00;1.00;;;;;19.62;62.17;101697.31;5077088;27;46516;-78
2021/08/30 09:12:23;;;;;;;;;0.00;0.00;;;;;19.86;61.31;101722.50;5077491;28;45352;-77
2021/08/30 09:14:48;;;;;;;;;0.25;0.25;;;;;19.94;61.79;101746.16;5070694;27;45643;-78
2021/08/30 09:17:14;;;;;;;;;0.00;0.00;;;;;19.98;61.61;101761.09;5080183;27;45500;-77
2021/08/30 09:19:40;;;;;;;;;1.00;0.00;;;;;19.81;62.17;101739.31;5076549;27;46153;-78
2021/08/30 09:22:07;;;;;;;;;0.00;0.00;;;;;19.71;61.97;101728.00;5075278;27;45529;-76
2021/08/30 09:24:35;;;;;;;;;0.00;0.00;;;;;19.63;61.91;101720.16;5078463;27;45486;-77
2021/08/30 09:27:06;;;;;;;;;0.25;0.00;;;;;19.78;61.66;101749.94;5077983;27;45474;-77
2021/08/30 09:29:35;;;;;;;;;0.00;0.00;;;;;19.92;61.95;101765.56;5077746;28;45464;-76
2021/08/30 09:32:00;;;;;;;;;1.25;1.00;;;;;19.94;61.05;101764.63;5092011;27;45243;-79
2021/08/30 09:34:37;;;;;;;;;2.50;1.00;;;;;19.80;60.66;101734.91;5076678;27;45652;-77
2021/08/30 09:37:05;;;;;;;;;1.00;1.00;;;;;19.81;60.72;101742.81;5077343;28;45287;-77
2021/08/30 09:39:32;;;;;;;;;0.00;0.00;;;;;19.78;60.48;101742.84;5074175;27;45650;-77
2021/08/30 09:41:59;;;;;;;;;1.75;0.00;;;;;19.89;60.44;101771.78;5081700;27;45357;-78
2021/08/30 09:44:27;;;;;;;;;0.00;0.00;;;;;19.66;60.82;101729.84;5081889;27;45310;-78
2021/08/30 09:46:54;;;;;;;;;0.50;0.50;;;;;19.89;60.54;101761.22;5080731;28;45403;-77
2021/08/30 09:49:23;;;;;;;;;0.00;0.00;;;;;19.89;60.83;101750.63;5078120;27;45446;-77
2021/08/30 09:51:50;;;;;;;;;0.75;0.50;;;;;19.27;60.52;101662.59;5080005;27;45364;-77
2021/08/30 09:54:18;;;;;;;;;3.00;0.00;;;;;19.77;60.25;101758.72;5081659;28;45472;-76
2021/08/30 09:56:45;;;;;;;;;0.00;0.00;;;;;19.66;60.25;101756.25;5081538;28;45613;-76
2021/08/30 09:59:12;;;;;;;;;0.50;0.00;;;;;19.66;60.27;101748.31;5082023;27;46146;-74
2021/08/30 10:01:41;;;;;;;;;0.00;0.00;;;;;19.70;60.46;101740.34;5081158;27;45549;-76
2021/08/30 10:04:10;;;;;;;;;0.00;0.00;;;;;19.79;60.10;101736.69;5114786;27;45227;-77
2021/08/30 10:06:38;;;;;;;;;0.00;0.00;;;;;19.79;59.88;101707.63;5081194;27;45524;-76
2021/08/30 10:09:14;;;;;;;;;0.50;0.50;;;;;20.25;59.98;101753.63;5096788;27;46447;-77
2021/08/30 10:11:42;;;;;;;;;0.00;0.00;;;;;20.34;59.33;101749.97;5096175;27;45997;-76
2021/08/30 10:14:11;;;;;;;;;0.00;0.00;;;;;20.32;58.93;101757.06;5079890;28;45319;-76
2021/08/30 10:16:38;;;;;;;;;3.00;0.00;;;;;20.08;58.90;101723.97;5077386;28;45479;-76
2021/08/30 10:19:03;;;;;;;;;0.00;0.00;;;;;19.93;59.13;101694.19;5078607;28;47489;-76
2021/08/30 10:21:30;;;;;;;;;0.00;0.00;;;;;20.30;58.52;101753.56;5095498;27;45578;-76
2021/08/30 10:23:56;;;;;;;;;0.00;0.00;;;;;20.11;58.61;101719.50;5083285;27;45377;-76
2021/08/30 10:26:23;;;;;;;;;0.25;0.25;;;;;20.23;58.44;101744.00;5081022;27;45282;-76
2021/08/30 10:28:49;;;;;;;;;4.00;1.50;;;;;20.21;58.52;101756.38;5080392;27;46256;-79
2021/08/30 10:31:24;;;;;;;;;0.00;0.00;;;;;19.85;58.09;101704.03;5079414;27;45429;-75
2021/08/30 10:33:51;;;;;;;;;1.00;0.00;;;;;19.81;57.78;101711.13;5079262;28;45375;-76
2021/08/30 10:36:20;;;;;;;;;0.00;0.00;;;;;20.06;57.73;101757.47;5080238;27;45357;-75
2021/08/30 10:38:58;;;;;;;;;1.00;1.00;;;;;19.92;58.34;101726.81;5079460;27;46196;-75
2021/08/30 10:41:34;;;;;;;;;1.00;0.00;;;;;19.91;58.52;101717.16;5081670;27;45504;-76
2021/08/30 10:44:11;;;;;;;;;0.75;0.75;;;;;19.96;58.47;101709.13;5091812;27;45380;-76
2021/08/30 10:46:42;;;;;;;;;0.00;0.00;;;;;19.89;58.47;101703.09;5080222;27;45486;-78
2021/08/30 10:49:28;;;;;;;;;0.50;0.50;;;;;20.06;57.75;101731.91;5079231;27;47262;-75
2021/08/30 10:52:07;;;;;;;;;0.00;0.00;;;;;20.13;58.33;101741.47;5078645;28;45705;-77
2021/08/30 10:54:33;;;;;;;;;0.00;0.00;;;;;20.24;58.73;101745.72;5079415;28;45522;-77
2021/08/30 10:57:01;;;;;;;;;0.50;0.00;;;;;20.34;57.78;101741.19;5113754;27;45520;-78
2021/08/30 10:59:31;;;;;;;;;1.00;1.00;;;;;20.52;57.40;101745.25;5080250;27;46722;-78
2021/08/30 11:02:03;;;;;;;;;3.00;0.00;;;;;20.69;57.11;101749.41;5079823;27;45445;-77
2021/08/30 11:04:31;;;;;;;;;0.00;0.00;;;;;20.76;56.82;101745.72;5075533;27;45780;-77
2021/08/30 11:06:57;;;;;;;;;0.00;0.00;;;;;20.61;56.21;101686.94;5079505;28;45527;-75
2021/08/30 11:09:22;;;;;;;;;0.00;0.00;;;;;21.06;55.98;101742.56;5080810;28;46363;-76
2021/08/30 11:11:49;;;;;;;;;0.00;0.00;;;;;21.22;56.23;101741.38;5080595;28;45504;-75
2021/08/30 11:14:16;;;;;;;;;0.25;0.25;;;;;21.38;56.01;101755.16;5078825;28;45446;-76
2021/08/30 11:16:42;;;;;;;;;0.00;0.00;;;;;21.46;55.64;101751.47;5080992;27;45347;-76
2021/08/30 11:19:13;;;;;;;;;0.00;0.00;;;;;21.39;55.22;101741.03;5078542;27;46924;-75
2021/08/30 11:21:48;;;;;;;;;0.00;0.00;;;;;21.38;55.67;101764.91;5078526;27;45403;-77
2021/08/30 11:24:43;;;;;;;;;0.00;0.00;;;;;21.16;55.27;101744.13;5084447;27;45281;-76
2021/08/30 11:27:17;;;;;;;;;0.00;0.00;;;;;20.99;55.10;101716.25;5076223;27;45310;-76
2021/08/30 11:29:46;;;;;;;;;5.25;1.00;;;;;21.42;55.39;101757.75;5077175;28;45595;-77